LJLJ/LJU METAR and TAF weather

Enter ICAO airport designator
Station Type Date Time Source
LJLJ METAR 2020/08/07 12:30 UTC NOAA

LJLJ 071230Z 11010KT 080V150 9999 SCT060 29/15 Q1020 NOSIG


Station Type Date Time Source
LJLJ Decoded METAR 2020/08/07 12:30 UTC NOAA

Ljubljana / Brnik, Slovenia (LJLJ) 46-13N 014-29E 362M
Aug 07, 2020 - 08:30 AM EDT / 2020.08.07 1230 UTC
Wind: from the ESE (110 degrees) at 12 MPH (10 KT) (direction variable):0
Visibility: greater than 7 mile(s):0
Sky conditions: partly cloudy
Temperature: 84 F (29 C)
Dew Point: 59 F (15 C)
Relative Humidity: 42%
Pressure (altimeter): 30.12 in. Hg (1020 hPa)
ob: LJLJ 071230Z 11010KT 080V150 9999 SCT060 29/15 Q1020 NOSIG
cycle: 12

Station Type Date Time Source
LJLJ TAF 2020/08/07 12:06 UTC NOAA

TAF LJLJ 071100Z 0712/0812 12005KT 9999 FEW060

Example: see airport list